sensor_id;sensor_type;location;lat;lon;timestamp;temperature;humidity
3602;DHT22;1815;50.950;6.920;2023-07-29T00:01:41;22.10;99.90
3602;DHT22;1815;50.950;6.920;2023-07-29T00:04:07;22.10;99.90
3602;DHT22;1815;50.950;6.920;2023-07-29T00:06:34;22.10;99.90
3602;DHT22;1815;50.950;6.920;2023-07-29T00:09:00;22.10;99.90
3602;DHT22;1815;50.950;6.920;2023-07-29T00:11:26;22.10;99.90
3602;DHT22;1815;50.950;6.920;2023-07-29T00:13:52;22.00;99.90
3602;DHT22;1815;50.950;6.920;2023-07-29T00:16:18;22.00;99.90
3602;DHT22;1815;50.950;6.920;2023-07-29T00:18:48;22.00;99.90
3602;DHT22;1815;50.950;6.920;2023-07-29T00:21:13;21.90;99.90
3602;DHT22;1815;50.950;6.920;2023-07-29T00:23:39;21.90;99.90
3602;DHT22;1815;50.950;6.920;2023-07-29T00:26:05;21.90;99.90
3602;DHT22;1815;50.950;6.920;2023-07-29T00:28:31;21.80;99.90
3602;DHT22;1815;50.950;6.920;2023-07-29T00:30:56;21.80;99.90
3602;DHT22;1815;50.950;6.920;2023-07-29T00:33:22;21.70;99.90
3602;DHT22;1815;50.950;6.920;2023-07-29T00:35:48;21.70;99.90
3602;DHT22;1815;50.950;6.920;2023-07-29T00:38:13;21.60;99.90
3602;DHT22;1815;50.950;6.920;2023-07-29T00:40:39;21.50;99.90
3602;DHT22;1815;50.950;6.920;2023-07-29T00:43:05;21.50;99.90
3602;DHT22;1815;50.950;6.920;2023-07-29T00:45:32;21.40;99.90
3602;DHT22;1815;50.950;6.920;2023-07-29T00:47:59;21.40;99.90
3602;DHT22;1815;50.950;6.920;2023-07-29T00:50:25;21.40;99.90
3602;DHT22;1815;50.950;6.920;2023-07-29T00:52:54;21.30;99.90
3602;DHT22;1815;50.950;6.920;2023-07-29T00:55:23;21.30;99.90
3602;DHT22;1815;50.950;6.920;2023-07-29T00:57:48;21.30;99.90
3602;DHT22;1815;50.950;6.920;2023-07-29T01:00:17;21.30;99.90
3602;DHT22;1815;50.950;6.920;2023-07-29T01:02:43;21.30;99.90
3602;DHT22;1815;50.950;6.920;2023-07-29T01:05:11;21.30;99.90
3602;DHT22;1815;50.950;6.920;2023-07-29T01:08:14;21.30;99.90
3602;DHT22;1815;50.950;6.920;2023-07-29T01:11:01;21.30;99.90
3602;DHT22;1815;50.950;6.920;2023-07-29T01:13:37;21.30;99.90
3602;DHT22;1815;50.950;6.920;2023-07-29T01:17:03;21.30;99.90
3602;DHT22;1815;50.950;6.920;2023-07-29T01:19:43;21.30;99.90
3602;DHT22;1815;50.950;6.920;2023-07-29T01:22:11;21.30;99.90
3602;DHT22;1815;50.950;6.920;2023-07-29T01:24:39;21.30;99.90
3602;DHT22;1815;50.950;6.920;2023-07-29T01:27:05;21.30;99.90
3602;DHT22;1815;50.950;6.920;2023-07-29T01:29:31;21.30;99.90
3602;DHT22;1815;50.950;6.920;2023-07-29T01:32:01;21.30;99.90
3602;DHT22;1815;50.950;6.920;2023-07-29T01:34:34;21.30;99.90
3602;DHT22;1815;50.950;6.920;2023-07-29T01:37:02;21.30;99.90
3602;DHT22;1815;50.950;6.920;2023-07-29T01:39:32;21.30;99.90
3602;DHT22;1815;50.950;6.920;2023-07-29T01:41:59;21.40;99.90
3602;DHT22;1815;50.950;6.920;2023-07-29T01:44:27;21.40;99.90
3602;DHT22;1815;50.950;6.920;2023-07-29T01:46:58;21.30;99.90
3602;DHT22;1815;50.950;6.920;2023-07-29T01:49:23;21.20;99.90
3602;DHT22;1815;50.950;6.920;2023-07-29T01:51:50;21.20;99.90
3602;DHT22;1815;50.950;6.920;2023-07-29T01:54:16;21.10;99.90
3602;DHT22;1815;50.950;6.920;2023-07-29T01:56:42;21.10;99.90
3602;DHT22;1815;50.950;6.920;2023-07-29T01:59:08;21.10;99.90
3602;DHT22;1815;50.950;6.920;2023-07-29T02:01:33;21.10;99.90
3602;DHT22;1815;50.950;6.920;2023-07-29T02:03:59;21.10;99.90
3602;DHT22;1815;50.950;6.920;2023-07-29T02:06:25;21.10;99.90
3602;DHT22;1815;50.950;6.920;2023-07-29T02:08:53;21.10;99.90
3602;DHT22;1815;50.950;6.920;2023-07-29T02:11:19;21.10;99.90
3602;DHT22;1815;50.950;6.920;2023-07-29T02:13:53;21.10;99.90
3602;DHT22;1815;50.950;6.920;2023-07-29T02:16:19;21.10;99.90
3602;DHT22;1815;50.950;6.920;2023-07-29T02:18:45;21.10;99.90
3602;DHT22;1815;50.950;6.920;2023-07-29T02:21:10;21.10;99.90
3602;DHT22;1815;50.950;6.920;2023-07-29T02:23:36;21.10;99.90
3602;DHT22;1815;50.950;6.920;2023-07-29T02:26:02;21.10;99.90
3602;DHT22;1815;50.950;6.920;2023-07-29T02:28:28;21.10;99.90
3602;DHT22;1815;50.950;6.920;2023-07-29T02:31:29;21.10;99.90
3602;DHT22;1815;50.950;6.920;2023-07-29T02:33:55;21.10;99.90
3602;DHT22;1815;50.950;6.920;2023-07-29T02:36:23;21.10;99.90
3602;DHT22;1815;50.950;6.920;2023-07-29T02:38:49;21.10;99.90
3602;DHT22;1815;50.950;6.920;2023-07-29T02:41:15;21.00;99.90
3602;DHT22;1815;50.950;6.920;2023-07-29T02:43:49;21.10;99.90
3602;DHT22;1815;50.950;6.920;2023-07-29T02:46:15;21.10;99.90
3602;DHT22;1815;50.950;6.920;2023-07-29T02:48:41;21.00;99.90
3602;DHT22;1815;50.950;6.920;2023-07-29T02:51:07;21.00;99.90
3602;DHT22;1815;50.950;6.920;2023-07-29T02:53:33;21.00;99.90
3602;DHT22;1815;50.950;6.920;2023-07-29T02:55:58;21.00;99.90
3602;DHT22;1815;50.950;6.920;2023-07-29T02:58:24;21.00;99.90
3602;DHT22;1815;50.950;6.920;2023-07-29T03:00:51;21.00;99.90
3602;DHT22;1815;50.950;6.920;2023-07-29T03:03:17;21.00;99.90
3602;DHT22;1815;50.950;6.920;2023-07-29T03:05:45;21.00;99.90
3602;DHT22;1815;50.950;6.920;2023-07-29T03:08:10;21.00;99.90
3602;DHT22;1815;50.950;6.920;2023-07-29T03:10:36;21.00;99.90
3602;DHT22;1815;50.950;6.920;2023-07-29T03:13:02;21.00;99.90
3602;DHT22;1815;50.950;6.920;2023-07-29T03:15:28;21.00;99.90
3602;DHT22;1815;50.950;6.920;2023-07-29T03:17:54;21.00;99.90
3602;DHT22;1815;50.950;6.920;2023-07-29T03:20:20;21.00;99.90
3602;DHT22;1815;50.950;6.920;2023-07-29T03:22:46;21.00;99.90
3602;DHT22;1815;50.950;6.920;2023-07-29T03:25:13;21.00;99.90
3602;DHT22;1815;50.950;6.920;2023-07-29T03:27:38;21.00;99.90
3602;DHT22;1815;50.950;6.920;2023-07-29T03:30:06;21.00;99.90
3602;DHT22;1815;50.950;6.920;2023-07-29T03:32:33;20.90;99.90
3602;DHT22;1815;50.950;6.920;2023-07-29T03:34:58;20.90;99.90
3602;DHT22;1815;50.950;6.920;2023-07-29T03:37:24;20.90;99.90
3602;DHT22;1815;50.950;6.920;2023-07-29T03:39:50;20.90;99.90
3602;DHT22;1815;50.950;6.920;2023-07-29T03:42:17;20.90;99.90
3602;DHT22;1815;50.950;6.920;2023-07-29T03:44:43;20.90;99.90
3602;DHT22;1815;50.950;6.920;2023-07-29T03:47:09;20.90;99.90
3602;DHT22;1815;50.950;6.920;2023-07-29T03:49:38;20.90;99.90
3602;DHT22;1815;50.950;6.920;2023-07-29T03:52:05;20.90;99.90
3602;DHT22;1815;50.950;6.920;2023-07-29T03:54:31;20.90;99.90
3602;DHT22;1815;50.950;6.920;2023-07-29T03:56:57;20.80;99.90
3602;DHT22;1815;50.950;6.920;2023-07-29T03:59:23;20.80;99.90
3602;DHT22;1815;50.950;6.920;2023-07-29T04:01:49;20.80;99.90
3602;DHT22;1815;50.950;6.920;2023-07-29T04:04:15;20.80;99.90
3602;DHT22;1815;50.950;6.920;2023-07-29T04:06:41;20.80;99.90
3602;DHT22;1815;50.950;6.920;2023-07-29T04:09:06;20.80;99.90
3602;DHT22;1815;50.950;6.920;2023-07-29T04:11:34;20.80;99.90
3602;DHT22;1815;50.950;6.920;2023-07-29T04:13:59;20.80;99.90
3602;DHT22;1815;50.950;6.920;2023-07-29T04:16:25;20.80;99.90
3602;DHT22;1815;50.950;6.920;2023-07-29T04:18:51;20.70;99.90
3602;DHT22;1815;50.950;6.920;2023-07-29T04:21:17;20.70;99.90
3602;DHT22;1815;50.950;6.920;2023-07-29T04:23:43;20.70;99.90
3602;DHT22;1815;50.950;6.920;2023-07-29T04:26:08;20.70;99.90
3602;DHT22;1815;50.950;6.920;2023-07-29T04:28:34;20.70;99.90
3602;DHT22;1815;50.950;6.920;2023-07-29T04:31:00;20.70;99.90
3602;DHT22;1815;50.950;6.920;2023-07-29T04:33:26;20.70;99.90
3602;DHT22;1815;50.950;6.920;2023-07-29T04:35:52;20.70;99.90
3602;DHT22;1815;50.950;6.920;2023-07-29T04:38:18;20.60;99.90
3602;DHT22;1815;50.950;6.920;2023-07-29T04:40:44;20.60;99.90
3602;DHT22;1815;50.950;6.920;2023-07-29T04:43:10;20.70;99.90
3602;DHT22;1815;50.950;6.920;2023-07-29T04:45:35;20.70;99.90
3602;DHT22;1815;50.950;6.920;2023-07-29T04:48:01;20.70;99.90
3602;DHT22;1815;50.950;6.920;2023-07-29T04:50:27;20.70;99.90
3602;DHT22;1815;50.950;6.920;2023-07-29T04:52:52;20.70;99.90
3602;DHT22;1815;50.950;6.920;2023-07-29T04:55:18;20.70;99.90
3602;DHT22;1815;50.950;6.920;2023-07-29T04:57:44;20.70;99.90
3602;DHT22;1815;50.950;6.920;2023-07-29T05:00:10;20.70;99.90
3602;DHT22;1815;50.950;6.920;2023-07-29T05:02:36;20.70;99.90
3602;DHT22;1815;50.950;6.920;2023-07-29T05:05:02;20.70;99.90
3602;DHT22;1815;50.950;6.920;2023-07-29T05:07:28;20.80;99.90
3602;DHT22;1815;50.950;6.920;2023-07-29T05:09:54;20.80;99.90
3602;DHT22;1815;50.950;6.920;2023-07-29T05:12:19;20.80;99.90
3602;DHT22;1815;50.950;6.920;2023-07-29T05:14:45;20.80;99.90
3602;DHT22;1815;50.950;6.920;2023-07-29T05:17:11;20.80;99.90
3602;DHT22;1815;50.950;6.920;2023-07-29T05:19:36;20.80;99.90
3602;DHT22;1815;50.950;6.920;2023-07-29T05:22:02;20.80;99.90
3602;DHT22;1815;50.950;6.920;2023-07-29T05:24:28;20.80;99.90
3602;DHT22;1815;50.950;6.920;2023-07-29T05:26:53;20.90;99.90
3602;DHT22;1815;50.950;6.920;2023-07-29T05:29:19;20.90;99.90
3602;DHT22;1815;50.950;6.920;2023-07-29T05:31:45;20.90;99.90
3602;DHT22;1815;50.950;6.920;2023-07-29T05:34:11;21.00;99.90
3602;DHT22;1815;50.950;6.920;2023-07-29T05:36:37;21.00;99.90
3602;DHT22;1815;50.950;6.920;2023-07-29T05:39:03;21.00;99.90
3602;DHT22;1815;50.950;6.920;2023-07-29T05:41:29;21.10;99.90
3602;DHT22;1815;50.950;6.920;2023-07-29T05:43:55;21.10;99.90
3602;DHT22;1815;50.950;6.920;2023-07-29T05:46:20;21.10;99.90
3602;DHT22;1815;50.950;6.920;2023-07-29T05:48:46;21.10;99.90
3602;DHT22;1815;50.950;6.920;2023-07-29T05:51:12;21.10;99.90
3602;DHT22;1815;50.950;6.920;2023-07-29T05:53:38;21.10;99.90
3602;DHT22;1815;50.950;6.920;2023-07-29T05:56:03;21.10;99.90
3602;DHT22;1815;50.950;6.920;2023-07-29T05:58:29;21.10;99.90
3602;DHT22;1815;50.950;6.920;2023-07-29T06:00:57;21.20;99.90
3602;DHT22;1815;50.950;6.920;2023-07-29T06:03:23;21.20;99.90
3602;DHT22;1815;50.950;6.920;2023-07-29T06:05:50;21.30;99.90
3602;DHT22;1815;50.950;6.920;2023-07-29T06:08:16;21.30;99.90
3602;DHT22;1815;50.950;6.920;2023-07-29T06:10:42;21.40;99.90
3602;DHT22;1815;50.950;6.920;2023-07-29T06:13:08;21.50;99.90
3602;DHT22;1815;50.950;6.920;2023-07-29T06:15:33;21.50;99.90
3602;DHT22;1815;50.950;6.920;2023-07-29T06:17:59;21.50;99.90
3602;DHT22;1815;50.950;6.920;2023-07-29T06:20:25;21.60;99.90
3602;DHT22;1815;50.950;6.920;2023-07-29T06:22:51;21.60;99.90
3602;DHT22;1815;50.950;6.920;2023-07-29T06:25:16;21.60;99.90
3602;DHT22;1815;50.950;6.920;2023-07-29T06:27:42;21.60;99.90
3602;DHT22;1815;50.950;6.920;2023-07-29T06:30:08;21.60;99.90
3602;DHT22;1815;50.950;6.920;2023-07-29T06:32:34;21.60;99.90
3602;DHT22;1815;50.950;6.920;2023-07-29T06:35:00;21.60;99.90
3602;DHT22;1815;50.950;6.920;2023-07-29T06:37:26;21.60;99.90
3602;DHT22;1815;50.950;6.920;2023-07-29T06:39:52;21.60;99.90
3602;DHT22;1815;50.950;6.920;2023-07-29T06:42:18;21.60;99.90
3602;DHT22;1815;50.950;6.920;2023-07-29T06:44:43;21.60;99.90
3602;DHT22;1815;50.950;6.920;2023-07-29T06:47:11;21.60;99.90
3602;DHT22;1815;50.950;6.920;2023-07-29T06:49:37;21.60;99.90
3602;DHT22;1815;50.950;6.920;2023-07-29T06:52:03;21.60;99.90
3602;DHT22;1815;50.950;6.920;2023-07-29T06:54:29;21.60;99.90
3602;DHT22;1815;50.950;6.920;2023-07-29T06:56:55;21.60;99.90
3602;DHT22;1815;50.950;6.920;2023-07-29T06:59:30;21.60;99.90
3602;DHT22;1815;50.950;6.920;2023-07-29T07:01:59;21.70;99.90
3602;DHT22;1815;50.950;6.920;2023-07-29T07:04:26;21.90;99.90
3602;DHT22;1815;50.950;6.920;2023-07-29T07:06:52;22.00;99.90
3602;DHT22;1815;50.950;6.920;2023-07-29T07:09:18;22.20;99.90
3602;DHT22;1815;50.950;6.920;2023-07-29T07:12:01;22.30;99.90
3602;DHT22;1815;50.950;6.920;2023-07-29T07:14:27;22.50;99.90
3602;DHT22;1815;50.950;6.920;2023-07-29T07:16:53;22.80;99.90
3602;DHT22;1815;50.950;6.920;2023-07-29T07:19:18;23.20;99.90
3602;DHT22;1815;50.950;6.920;2023-07-29T07:21:44;23.50;99.90
3602;DHT22;1815;50.950;6.920;2023-07-29T07:24:10;23.80;99.90
3602;DHT22;1815;50.950;6.920;2023-07-29T07:26:35;24.10;99.90
3602;DHT22;1815;50.950;6.920;2023-07-29T07:29:01;24.30;99.90
3602;DHT22;1815;50.950;6.920;2023-07-29T07:31:27;24.40;99.90
3602;DHT22;1815;50.950;6.920;2023-07-29T07:33:52;24.40;99.90
3602;DHT22;1815;50.950;6.920;2023-07-29T07:36:18;24.40;99.90
3602;DHT22;1815;50.950;6.920;2023-07-29T07:38:44;24.40;99.90
3602;DHT22;1815;50.950;6.920;2023-07-29T07:41:09;24.50;99.90
3602;DHT22;1815;50.950;6.920;2023-07-29T07:43:35;24.50;99.90
3602;DHT22;1815;50.950;6.920;2023-07-29T07:50:19;24.50;99.90
3602;DHT22;1815;50.950;6.920;2023-07-29T07:52:45;24.60;99.90
3602;DHT22;1815;50.950;6.920;2023-07-29T07:55:11;24.50;99.90
3602;DHT22;1815;50.950;6.920;2023-07-29T07:57:37;24.50;99.90
3602;DHT22;1815;50.950;6.920;2023-07-29T08:00:03;24.50;99.90
3602;DHT22;1815;50.950;6.920;2023-07-29T08:02:38;24.50;99.90
3602;DHT22;1815;50.950;6.920;2023-07-29T08:08:23;24.70;99.90
3602;DHT22;1815;50.950;6.920;2023-07-29T08:10:49;25.10;99.90
3602;DHT22;1815;50.950;6.920;2023-07-29T08:13:14;25.50;99.90
3602;DHT22;1815;50.950;6.920;2023-07-29T08:15:40;25.90;99.90
3602;DHT22;1815;50.950;6.920;2023-07-29T08:18:07;26.40;99.90
3602;DHT22;1815;50.950;6.920;2023-07-29T08:20:32;27.00;99.90
3602;DHT22;1815;50.950;6.920;2023-07-29T08:22:58;27.70;99.90
3602;DHT22;1815;50.950;6.920;2023-07-29T08:25:24;28.40;99.90
3602;DHT22;1815;50.950;6.920;2023-07-29T08:27:49;28.80;99.90
3602;DHT22;1815;50.950;6.920;2023-07-29T08:30:15;29.10;99.90
3602;DHT22;1815;50.950;6.920;2023-07-29T08:32:42;29.30;99.90
3602;DHT22;1815;50.950;6.920;2023-07-29T08:35:07;29.60;99.90
3602;DHT22;1815;50.950;6.920;2023-07-29T08:37:33;29.70;99.90
3602;DHT22;1815;50.950;6.920;2023-07-29T08:39:59;29.90;99.90
3602;DHT22;1815;50.950;6.920;2023-07-29T08:42:29;29.90;99.90
3602;DHT22;1815;50.950;6.920;2023-07-29T08:44:56;29.90;99.90
3602;DHT22;1815;50.950;6.920;2023-07-29T08:47:24;29.70;99.90
3602;DHT22;1815;50.950;6.920;2023-07-29T08:49:50;29.40;99.90
3602;DHT22;1815;50.950;6.920;2023-07-29T08:52:18;29.10;99.90
3602;DHT22;1815;50.950;6.920;2023-07-29T08:54:44;28.80;99.90
3602;DHT22;1815;50.950;6.920;2023-07-29T08:57:10;28.50;99.90
3602;DHT22;1815;50.950;6.920;2023-07-29T08:59:36;28.20;99.90
3602;DHT22;1815;50.950;6.920;2023-07-29T09:02:03;28.00;99.90
3602;DHT22;1815;50.950;6.920;2023-07-29T09:04:29;27.90;99.90
3602;DHT22;1815;50.950;6.920;2023-07-29T09:06:59;27.70;99.90
3602;DHT22;1815;50.950;6.920;2023-07-29T09:09:27;27.60;99.90
3602;DHT22;1815;50.950;6.920;2023-07-29T09:11:54;27.50;99.90
3602;DHT22;1815;50.950;6.920;2023-07-29T09:14:20;27.30;99.90
3602;DHT22;1815;50.950;6.920;2023-07-29T09:16:46;27.20;99.90
3602;DHT22;1815;50.950;6.920;2023-07-29T09:19:20;27.00;99.90
3602;DHT22;1815;50.950;6.920;2023-07-29T09:21:46;26.80;99.90
3602;DHT22;1815;50.950;6.920;2023-07-29T09:24:16;26.60;99.90
3602;DHT22;1815;50.950;6.920;2023-07-29T09:26:49;26.40;99.90
3602;DHT22;1815;50.950;6.920;2023-07-29T09:29:15;26.20;99.90
3602;DHT22;1815;50.950;6.920;2023-07-29T09:31:40;26.10;99.90
3602;DHT22;1815;50.950;6.920;2023-07-29T09:34:06;26.00;99.90
3602;DHT22;1815;50.950;6.920;2023-07-29T09:36:33;25.90;99.90
3602;DHT22;1815;50.950;6.920;2023-07-29T09:39:02;25.80;99.90
3602;DHT22;1815;50.950;6.920;2023-07-29T09:41:29;25.70;99.90
3602;DHT22;1815;50.950;6.920;2023-07-29T09:44:00;25.70;99.90
3602;DHT22;1815;50.950;6.920;2023-07-29T09:46:33;25.60;99.90
3602;DHT22;1815;50.950;6.920;2023-07-29T09:48:59;25.50;99.90
3602;DHT22;1815;50.950;6.920;2023-07-29T09:51:26;25.50;99.90
3602;DHT22;1815;50.950;6.920;2023-07-29T09:53:52;25.50;99.90
3602;DHT22;1815;50.950;6.920;2023-07-29T09:56:27;25.60;99.90
3602;DHT22;1815;50.950;6.920;2023-07-29T09:58:55;25.70;99.90
3602;DHT22;1815;50.950;6.920;2023-07-29T10:01:21;25.80;99.90
3602;DHT22;1815;50.950;6.920;2023-07-29T10:03:48;26.00;99.90
3602;DHT22;1815;50.950;6.920;2023-07-29T10:06:15;26.00;99.90
3602;DHT22;1815;50.950;6.920;2023-07-29T10:08:42;26.10;99.90
3602;DHT22;1815;50.950;6.920;2023-07-29T10:11:11;26.30;99.90
3602;DHT22;1815;50.950;6.920;2023-07-29T10:13:37;26.40;99.90
3602;DHT22;1815;50.950;6.920;2023-07-29T10:16:04;26.50;99.90
3602;DHT22;1815;50.950;6.920;2023-07-29T10:18:31;26.60;99.90
3602;DHT22;1815;50.950;6.920;2023-07-29T10:20:59;26.70;99.90
3602;DHT22;1815;50.950;6.920;2023-07-29T10:23:27;26.70;99.90
3602;DHT22;1815;50.950;6.920;2023-07-29T10:26:02;26.70;99.90
3602;DHT22;1815;50.950;6.920;2023-07-29T10:28:30;26.70;99.90
3602;DHT22;1815;50.950;6.920;2023-07-29T10:30:57;26.70;99.90
3602;DHT22;1815;50.950;6.920;2023-07-29T10:33:23;26.70;99.90
3602;DHT22;1815;50.950;6.920;2023-07-29T10:35:49;26.60;99.90
3602;DHT22;1815;50.950;6.920;2023-07-29T10:38:16;26.50;99.90
3602;DHT22;1815;50.950;6.920;2023-07-29T10:40:46;26.40;99.90
3602;DHT22;1815;50.950;6.920;2023-07-29T10:44:15;26.30;99.90
3602;DHT22;1815;50.950;6.920;2023-07-29T10:46:39;26.10;99.90
3602;DHT22;1815;50.950;6.920;2023-07-29T10:49:04;25.90;99.90
3602;DHT22;1815;50.950;6.920;2023-07-29T10:51:35;25.80;99.90
3602;DHT22;1815;50.950;6.920;2023-07-29T10:56:32;25.50;99.90
3602;DHT22;1815;50.950;6.920;2023-07-29T10:59:23;25.40;99.90
3602;DHT22;1815;50.950;6.920;2023-07-29T11:01:53;25.40;99.90
3602;DHT22;1815;50.950;6.920;2023-07-29T11:12:51;25.30;99.90
3602;DHT22;1815;50.950;6.920;2023-07-29T11:15:28;25.40;99.90
3602;DHT22;1815;50.950;6.920;2023-07-29T11:20:28;25.70;99.90
3602;DHT22;1815;50.950;6.920;2023-07-29T11:22:55;25.80;99.90
3602;DHT22;1815;50.950;6.920;2023-07-29T11:25:23;25.80;99.90
3602;DHT22;1815;50.950;6.920;2023-07-29T11:27:51;25.90;99.90
3602;DHT22;1815;50.950;6.920;2023-07-29T11:30:17;26.30;99.90
3602;DHT22;1815;50.950;6.920;2023-07-29T11:32:45;26.80;99.90
3602;DHT22;1815;50.950;6.920;2023-07-29T11:35:18;27.30;99.90
3602;DHT22;1815;50.950;6.920;2023-07-29T11:37:46;27.90;99.90
3602;DHT22;1815;50.950;6.920;2023-07-29T11:40:16;28.50;99.90
3602;DHT22;1815;50.950;6.920;2023-07-29T11:42:42;29.10;99.90
3602;DHT22;1815;50.950;6.920;2023-07-29T11:45:09;29.70;99.90
3602;DHT22;1815;50.950;6.920;2023-07-29T11:47:35;30.30;99.90
3602;DHT22;1815;50.950;6.920;2023-07-29T11:50:06;30.70;99.90
3602;DHT22;1815;50.950;6.920;2023-07-29T11:52:43;31.20;99.90
3602;DHT22;1815;50.950;6.920;2023-07-29T11:55:09;31.50;99.90
3602;DHT22;1815;50.950;6.920;2023-07-29T11:57:37;31.90;99.90
3602;DHT22;1815;50.950;6.920;2023-07-29T12:00:08;32.30;99.90
3602;DHT22;1815;50.950;6.920;2023-07-29T12:02:39;32.50;99.90
3602;DHT22;1815;50.950;6.920;2023-07-29T12:05:07;32.70;99.90
3602;DHT22;1815;50.950;6.920;2023-07-29T12:07:34;32.90;99.90
3602;DHT22;1815;50.950;6.920;2023-07-29T12:10:00;33.00;99.90
3602;DHT22;1815;50.950;6.920;2023-07-29T12:12:26;33.20;99.90
3602;DHT22;1815;50.950;6.920;2023-07-29T12:14:54;33.40;99.90
3602;DHT22;1815;50.950;6.920;2023-07-29T12:17:20;33.60;99.90
3602;DHT22;1815;50.950;6.920;2023-07-29T12:19:45;33.70;99.90
3602;DHT22;1815;50.950;6.920;2023-07-29T12:22:11;33.80;99.90
3602;DHT22;1815;50.950;6.920;2023-07-29T12:24:39;33.80;99.90
3602;DHT22;1815;50.950;6.920;2023-07-29T12:27:05;33.80;99.90
3602;DHT22;1815;50.950;6.920;2023-07-29T12:29:40;33.80;99.90
3602;DHT22;1815;50.950;6.920;2023-07-29T12:32:06;33.80;99.90
3602;DHT22;1815;50.950;6.920;2023-07-29T12:34:32;33.80;99.90
3602;DHT22;1815;50.950;6.920;2023-07-29T12:36:58;33.80;99.90
3602;DHT22;1815;50.950;6.920;2023-07-29T12:39:29;33.70;99.90
3602;DHT22;1815;50.950;6.920;2023-07-29T12:41:59;33.70;99.90
3602;DHT22;1815;50.950;6.920;2023-07-29T12:44:31;33.60;99.90
3602;DHT22;1815;50.950;6.920;2023-07-29T12:46:58;33.50;99.90
3602;DHT22;1815;50.950;6.920;2023-07-29T12:49:26;33.30;99.90
3602;DHT22;1815;50.950;6.920;2023-07-29T12:51:54;33.00;98.10
3602;DHT22;1815;50.950;6.920;2023-07-29T12:54:19;32.70;97.30
3602;DHT22;1815;50.950;6.920;2023-07-29T12:56:45;32.30;96.70
3602;DHT22;1815;50.950;6.920;2023-07-29T12:59:11;31.90;96.70
3602;DHT22;1815;50.950;6.920;2023-07-29T13:01:37;31.50;96.70
3602;DHT22;1815;50.950;6.920;2023-07-29T13:04:03;31.10;96.80
3602;DHT22;1815;50.950;6.920;2023-07-29T13:06:29;30.80;97.20
3602;DHT22;1815;50.950;6.920;2023-07-29T13:08:54;30.50;97.60
3602;DHT22;1815;50.950;6.920;2023-07-29T13:11:20;30.40;98.00
3602;DHT22;1815;50.950;6.920;2023-07-29T13:13:46;30.20;98.40
3602;DHT22;1815;50.950;6.920;2023-07-29T13:16:12;30.00;98.60
3602;DHT22;1815;50.950;6.920;2023-07-29T13:18:38;29.90;99.00
3602;DHT22;1815;50.950;6.920;2023-07-29T13:21:04;29.80;99.20
3602;DHT22;1815;50.950;6.920;2023-07-29T13:23:30;29.60;99.00
3602;DHT22;1815;50.950;6.920;2023-07-29T13:25:56;29.40;99.20
3602;DHT22;1815;50.950;6.920;2023-07-29T13:28:22;29.20;99.20
3602;DHT22;1815;50.950;6.920;2023-07-29T13:30:49;29.00;99.30
3602;DHT22;1815;50.950;6.920;2023-07-29T13:33:15;28.70;99.60
3602;DHT22;1815;50.950;6.920;2023-07-29T13:35:40;28.50;99.90
3602;DHT22;1815;50.950;6.920;2023-07-29T13:38:06;28.20;99.90
3602;DHT22;1815;50.950;6.920;2023-07-29T13:40:32;27.90;99.90
3602;DHT22;1815;50.950;6.920;2023-07-29T13:42:58;27.60;99.90
3602;DHT22;1815;50.950;6.920;2023-07-29T13:45:33;27.10;99.90
3602;DHT22;1815;50.950;6.920;2023-07-29T13:47:59;26.70;99.90
3602;DHT22;1815;50.950;6.920;2023-07-29T13:50:24;26.30;99.90
3602;DHT22;1815;50.950;6.920;2023-07-29T13:52:50;26.00;99.90
3602;DHT22;1815;50.950;6.920;2023-07-29T13:55:16;25.60;99.90
3602;DHT22;1815;50.950;6.920;2023-07-29T13:57:42;25.30;99.90
3602;DHT22;1815;50.950;6.920;2023-07-29T14:00:07;25.00;99.90
3602;DHT22;1815;50.950;6.920;2023-07-29T14:02:39;24.70;99.90
3602;DHT22;1815;50.950;6.920;2023-07-29T14:05:05;24.50;99.90
3602;DHT22;1815;50.950;6.920;2023-07-29T14:07:32;24.20;99.90
3602;DHT22;1815;50.950;6.920;2023-07-29T14:09:58;24.10;99.90
3602;DHT22;1815;50.950;6.920;2023-07-29T14:12:24;23.90;99.90
3602;DHT22;1815;50.950;6.920;2023-07-29T14:14:49;23.80;99.90
3602;DHT22;1815;50.950;6.920;2023-07-29T14:17:15;23.80;99.90
3602;DHT22;1815;50.950;6.920;2023-07-29T14:19:41;23.80;99.90
3602;DHT22;1815;50.950;6.920;2023-07-29T14:22:06;23.80;99.90
3602;DHT22;1815;50.950;6.920;2023-07-29T14:24:32;23.90;99.90
3602;DHT22;1815;50.950;6.920;2023-07-29T14:26:58;24.00;99.90
3602;DHT22;1815;50.950;6.920;2023-07-29T14:29:24;24.10;99.90
3602;DHT22;1815;50.950;6.920;2023-07-29T14:31:49;24.20;99.90
3602;DHT22;1815;50.950;6.920;2023-07-29T14:34:15;24.30;99.90
3602;DHT22;1815;50.950;6.920;2023-07-29T14:36:40;24.40;99.90
3602;DHT22;1815;50.950;6.920;2023-07-29T14:39:07;24.50;99.90
3602;DHT22;1815;50.950;6.920;2023-07-29T14:41:33;24.60;99.90
3602;DHT22;1815;50.950;6.920;2023-07-29T14:43:59;24.60;99.90
3602;DHT22;1815;50.950;6.920;2023-07-29T14:46:24;24.70;99.90
3602;DHT22;1815;50.950;6.920;2023-07-29T14:48:50;24.70;99.90
3602;DHT22;1815;50.950;6.920;2023-07-29T14:51:16;24.70;99.90
3602;DHT22;1815;50.950;6.920;2023-07-29T14:53:41;24.60;99.90
3602;DHT22;1815;50.950;6.920;2023-07-29T14:56:08;24.60;99.90
3602;DHT22;1815;50.950;6.920;2023-07-29T14:58:34;24.60;99.90
3602;DHT22;1815;50.950;6.920;2023-07-29T15:00:59;24.60;99.90
3602;DHT22;1815;50.950;6.920;2023-07-29T15:03:26;24.70;99.90
3602;DHT22;1815;50.950;6.920;2023-07-29T15:05:53;24.70;99.90
3602;DHT22;1815;50.950;6.920;2023-07-29T15:08:18;24.60;99.90
3602;DHT22;1815;50.950;6.920;2023-07-29T15:10:47;24.60;99.90
3602;DHT22;1815;50.950;6.920;2023-07-29T15:13:14;24.60;99.90
3602;DHT22;1815;50.950;6.920;2023-07-29T15:15:43;24.60;99.90
3602;DHT22;1815;50.950;6.920;2023-07-29T15:18:09;24.50;99.90
3602;DHT22;1815;50.950;6.920;2023-07-29T15:20:35;24.50;99.90
3602;DHT22;1815;50.950;6.920;2023-07-29T15:23:01;24.50;99.90
3602;DHT22;1815;50.950;6.920;2023-07-29T15:25:27;24.50;99.90
3602;DHT22;1815;50.950;6.920;2023-07-29T15:27:55;24.50;99.90
3602;DHT22;1815;50.950;6.920;2023-07-29T15:30:21;24.70;99.90
3602;DHT22;1815;50.950;6.920;2023-07-29T15:32:46;24.70;99.90
3602;DHT22;1815;50.950;6.920;2023-07-29T15:35:12;24.70;99.90
3602;DHT22;1815;50.950;6.920;2023-07-29T15:37:38;24.70;99.90
3602;DHT22;1815;50.950;6.920;2023-07-29T15:40:05;24.60;99.90
3602;DHT22;1815;50.950;6.920;2023-07-29T15:42:31;24.60;99.90
3602;DHT22;1815;50.950;6.920;2023-07-29T15:44:57;24.60;99.90
3602;DHT22;1815;50.950;6.920;2023-07-29T15:47:23;24.60;99.90
3602;DHT22;1815;50.950;6.920;2023-07-29T15:49:48;24.60;99.90
3602;DHT22;1815;50.950;6.920;2023-07-29T15:52:14;24.60;99.90
3602;DHT22;1815;50.950;6.920;2023-07-29T15:54:41;24.60;99.90
3602;DHT22;1815;50.950;6.920;2023-07-29T15:57:07;24.60;99.90
3602;DHT22;1815;50.950;6.920;2023-07-29T15:59:33;24.70;99.90
3602;DHT22;1815;50.950;6.920;2023-07-29T16:01:58;24.70;99.90
3602;DHT22;1815;50.950;6.920;2023-07-29T16:04:24;24.80;99.90
3602;DHT22;1815;50.950;6.920;2023-07-29T16:06:50;24.80;99.90
3602;DHT22;1815;50.950;6.920;2023-07-29T16:09:15;24.80;99.90
3602;DHT22;1815;50.950;6.920;2023-07-29T16:11:43;24.90;99.90
3602;DHT22;1815;50.950;6.920;2023-07-29T16:14:09;24.80;99.90
3602;DHT22;1815;50.950;6.920;2023-07-29T16:16:34;24.80;99.90
3602;DHT22;1815;50.950;6.920;2023-07-29T16:19:00;24.70;99.90
3602;DHT22;1815;50.950;6.920;2023-07-29T16:21:26;24.70;99.90
3602;DHT22;1815;50.950;6.920;2023-07-29T16:23:52;24.60;99.90